Time;durP1;ratioP1;P1;durP2;ratioP2;P2;SDS_P1;SDS_P2;PMS_P1;PMS_P2;Temp;Humidity;BMP_temperature;BMP_pressure;BME280_temperature;BME280_humidity;BME280_pressure;Samples;Min_cycle;Max_cycle;Signal;HPM_P1;HPM_P2
2021/07/20 00:02:48;;;;;;;10.27;4.50;;;;;;;;;;6154025;28;20059;-66
2021/07/20 00:05:50;;;;;;;9.15;4.93;;;;;;;;;;6128633;28;20083;-65
2021/07/20 00:08:54;;;;;;;7.47;5.13;;;;;;;;;;6184256;28;20072;-68
2021/07/20 00:11:55;;;;;;;7.78;4.63;;;;;;;;;;6179306;28;20607;-66
2021/07/20 00:14:59;;;;;;;8.95;4.65;;;;;;;;;;6188846;28;20042;-65
2021/07/20 00:18:05;;;;;;;7.78;4.50;;;;;;;;;;6171409;28;20065;-67
2021/07/20 00:21:11;;;;;;;14.40;5.50;;;;;;;;;;6179362;28;20050;-66
2021/07/20 00:24:15;;;;;;;9.15;4.95;;;;;;;;;;6177896;28;20136;-68
2021/07/20 00:27:17;;;;;;;11.35;4.82;;;;;;;;;;6176473;28;20039;-66
2021/07/20 00:30:19;;;;;;;11.60;4.70;;;;;;;;;;6184306;28;21066;-71
2021/07/20 00:33:22;;;;;;;8.57;4.72;;;;;;;;;;6186567;28;20198;-68
2021/07/20 00:36:23;;;;;;;7.97;4.80;;;;;;;;;;6184190;28;20042;-64
2021/07/20 00:39:27;;;;;;;10.23;5.20;;;;;;;;;;6194677;28;20049;-66
2021/07/20 00:42:29;;;;;;;14.60;5.53;;;;;;;;;;6186024;28;20123;-65
2021/07/20 00:45:31;;;;;;;8.57;4.93;;;;;;;;;;6183476;28;20617;-69
2021/07/20 00:48:33;;;;;;;10.18;4.57;;;;;;;;;;6183471;28;20053;-65
2021/07/20 00:51:56;;;;;;;9.68;5.20;;;;;;;;;;6184299;28;20057;-69
2021/07/20 00:54:59;;;;;;;10.90;5.03;;;;;;;;;;6185383;28;20059;-65
2021/07/20 00:58:04;;;;;;;10.00;4.15;;;;;;;;;;6180972;28;20050;-68
2021/07/20 01:01:06;;;;;;;9.00;4.57;;;;;;;;;;6176938;28;20323;-66
2021/07/20 01:04:09;;;;;;;9.15;5.22;;;;;;;;;;6168706;28;20046;-65
2021/07/20 01:07:13;;;;;;;9.27;4.97;;;;;;;;;;6176544;28;20078;-66
2021/07/20 01:10:18;;;;;;;7.50;4.25;;;;;;;;;;6183109;28;20054;-71
2021/07/20 01:13:20;;;;;;;10.48;5.03;;;;;;;;;;6184913;28;20057;-65
2021/07/20 01:16:23;;;;;;;11.25;4.93;;;;;;;;;;6183550;28;20050;-65
2021/07/20 01:19:28;;;;;;;9.23;4.90;;;;;;;;;;6191138;28;20050;-65
2021/07/20 01:22:34;;;;;;;11.25;5.20;;;;;;;;;;6184066;28;20061;-67
2021/07/20 01:25:40;;;;;;;10.20;4.90;;;;;;;;;;6186545;28;20057;-65
2021/07/20 01:28:42;;;;;;;9.45;5.10;;;;;;;;;;6177024;28;20059;-65
2021/07/20 01:31:45;;;;;;;9.52;4.53;;;;;;;;;;6165983;28;20053;-66
2021/07/20 01:34:47;;;;;;;10.27;5.18;;;;;;;;;;6188410;28;20042;-65
2021/07/20 01:37:50;;;;;;;9.68;4.80;;;;;;;;;;6180053;28;20042;-66
2021/07/20 01:40:56;;;;;;;8.02;4.90;;;;;;;;;;6174109;28;20046;-68
2021/07/20 01:44:00;;;;;;;7.07;4.80;;;;;;;;;;6164591;28;20062;-65
2021/07/20 01:47:02;;;;;;;9.80;5.15;;;;;;;;;;6153851;28;20074;-65
2021/07/20 01:50:06;;;;;;;8.50;4.40;;;;;;;;;;6168760;28;20042;-65
2021/07/20 01:53:08;;;;;;;7.57;4.53;;;;;;;;;;6160463;28;20054;-65
2021/07/20 01:56:12;;;;;;;9.48;4.20;;;;;;;;;;6158376;28;20076;-67
2021/07/20 01:59:14;;;;;;;9.38;5.45;;;;;;;;;;6165064;28;20050;-64
2021/07/20 02:02:28;;;;;;;9.73;4.68;;;;;;;;;;6154969;28;20044;-69
2021/07/20 02:08:51;;;;;;;10.57;5.43;;;;;;;;;;6166263;28;20054;-66
2021/07/20 02:11:55;;;;;;;9.80;4.40;;;;;;;;;;6155515;28;20053;-68
2021/07/20 02:14:57;;;;;;;6.22;4.35;;;;;;;;;;6175499;28;20197;-65
2021/07/20 02:18:01;;;;;;;9.57;4.63;;;;;;;;;;6175429;28;20050;-66
2021/07/20 02:21:05;;;;;;;8.23;4.45;;;;;;;;;;6181006;28;20053;-65
2021/07/20 02:24:07;;;;;;;9.23;4.45;;;;;;;;;;6189717;28;20054;-67
2021/07/20 02:27:11;;;;;;;6.93;4.75;;;;;;;;;;6184346;28;20069;-66
2021/07/20 02:30:18;;;;;;;6.53;4.45;;;;;;;;;;6188498;28;20506;-66
2021/07/20 02:33:21;;;;;;;10.13;4.93;;;;;;;;;;6183320;28;20046;-70
2021/07/20 02:36:23;;;;;;;6.33;4.37;;;;;;;;;;6185421;28;20043;-67
2021/07/20 02:39:26;;;;;;;10.20;4.43;;;;;;;;;;6192589;28;20046;-66
2021/07/20 02:42:30;;;;;;;9.03;4.83;;;;;;;;;;6186248;28;20073;-66
2021/07/20 02:45:35;;;;;;;11.63;5.15;;;;;;;;;;6186614;28;20550;-71
2021/07/20 02:48:38;;;;;;;5.18;3.85;;;;;;;;;;6185181;28;20498;-67
2021/07/20 02:51:40;;;;;;;10.73;4.32;;;;;;;;;;6181657;28;20038;-66
2021/07/20 02:54:43;;;;;;;8.60;4.57;;;;;;;;;;6194648;28;20053;-66
2021/07/20 02:57:47;;;;;;;7.77;4.70;;;;;;;;;;6182635;28;20518;-70
2021/07/20 03:00:49;;;;;;;8.88;4.60;;;;;;;;;;6177907;28;20050;-66
2021/07/20 03:03:53;;;;;;;7.88;4.30;;;;;;;;;;6182790;28;20649;-65
2021/07/20 03:07:01;;;;;;;7.25;4.70;;;;;;;;;;6184693;28;20057;-66
2021/07/20 03:10:05;;;;;;;6.15;4.47;;;;;;;;;;6191091;28;20490;-65
2021/07/20 03:13:10;;;;;;;8.38;5.22;;;;;;;;;;6177789;28;20125;-67
2021/07/20 03:16:12;;;;;;;8.20;4.57;;;;;;;;;;6156666;28;20054;-65
2021/07/20 03:19:15;;;;;;;11.43;4.70;;;;;;;;;;6164229;28;20040;-65
2021/07/20 03:22:18;;;;;;;6.78;4.40;;;;;;;;;;6157246;28;20047;-66
2021/07/20 03:25:21;;;;;;;8.95;4.15;;;;;;;;;;6163385;28;20078;-71
2021/07/20 03:28:25;;;;;;;9.03;4.70;;;;;;;;;;6165133;28;20561;-66
2021/07/20 03:31:29;;;;;;;8.57;4.72;;;;;;;;;;6154247;28;20514;-65
2021/07/20 03:34:31;;;;;;;8.32;4.07;;;;;;;;;;6170069;28;20046;-66
2021/07/20 03:37:33;;;;;;;10.43;4.78;;;;;;;;;;6181806;28;20058;-66
2021/07/20 03:40:35;;;;;;;11.13;4.70;;;;;;;;;;6179597;28;20038;-68
2021/07/20 03:43:38;;;;;;;11.10;4.63;;;;;;;;;;6191329;28;20070;-66
2021/07/20 03:46:42;;;;;;;8.25;4.20;;;;;;;;;;6177209;28;20501;-66
2021/07/20 03:49:44;;;;;;;7.22;4.38;;;;;;;;;;6187203;28;20046;-67
2021/07/20 03:52:46;;;;;;;11.83;4.43;;;;;;;;;;6180551;28;20050;-65
2021/07/20 03:55:51;;;;;;;12.87;4.67;;;;;;;;;;6170681;28;20521;-66
2021/07/20 03:58:55;;;;;;;8.60;4.28;;;;;;;;;;6190837;28;20452;-66
2021/07/20 04:01:59;;;;;;;7.78;3.92;;;;;;;;;;6174961;28;20081;-66
2021/07/20 04:05:01;;;;;;;9.85;5.03;;;;;;;;;;6193411;28;20046;-70
2021/07/20 04:08:03;;;;;;;10.15;4.80;;;;;;;;;;6182495;28;20057;-66
2021/07/20 04:11:05;;;;;;;8.83;4.63;;;;;;;;;;6160396;28;20446;-66
2021/07/20 04:14:11;;;;;;;10.40;4.90;;;;;;;;;;6186180;28;20484;-65
2021/07/20 04:17:14;;;;;;;14.07;4.70;;;;;;;;;;6158824;28;20592;-66
2021/07/20 04:20:16;;;;;;;10.52;4.07;;;;;;;;;;6165302;28;20069;-70
2021/07/20 04:23:21;;;;;;;12.93;5.00;;;;;;;;;;6175882;28;20061;-65
2021/07/20 04:26:23;;;;;;;9.93;4.63;;;;;;;;;;6160363;28;20042;-66
2021/07/20 04:29:28;;;;;;;9.02;4.30;;;;;;;;;;6171575;28;20059;-66
2021/07/20 04:32:30;;;;;;;11.93;5.75;;;;;;;;;;6158761;28;20507;-65
2021/07/20 04:35:32;;;;;;;10.90;4.53;;;;;;;;;;6165096;28;20070;-68
2021/07/20 04:38:37;;;;;;;8.77;4.30;;;;;;;;;;6168994;28;20054;-66
2021/07/20 04:41:39;;;;;;;9.00;4.55;;;;;;;;;;6162116;28;20511;-66
2021/07/20 04:44:43;;;;;;;7.20;4.10;;;;;;;;;;6168500;28;20047;-66
2021/07/20 04:47:45;;;;;;;8.90;4.15;;;;;;;;;;6156337;28;20783;-68
2021/07/20 04:50:47;;;;;;;7.72;4.10;;;;;;;;;;6175443;28;20073;-66
2021/07/20 04:53:49;;;;;;;8.25;4.88;;;;;;;;;;6181909;28;20047;-67
2021/07/20 04:56:54;;;;;;;7.13;4.45;;;;;;;;;;6176165;28;20058;-65
2021/07/20 04:59:57;;;;;;;11.98;4.40;;;;;;;;;;6169045;28;20058;-65
2021/07/20 05:03:02;;;;;;;13.75;5.57;;;;;;;;;;6161790;28;20136;-68
2021/07/20 05:06:04;;;;;;;7.75;4.60;;;;;;;;;;6163489;28;20061;-66
2021/07/20 05:09:06;;;;;;;9.18;4.95;;;;;;;;;;6180925;28;20043;-66
2021/07/20 05:12:09;;;;;;;12.48;5.35;;;;;;;;;;6158897;28;20054;-65
2021/07/20 05:15:24;;;;;;;8.15;4.75;;;;;;;;;;6167035;28;20062;-69
2021/07/20 05:18:28;;;;;;;13.35;5.60;;;;;;;;;;6168729;28;20074;-68
2021/07/20 05:21:30;;;;;;;11.15;4.53;;;;;;;;;;6181708;28;20046;-69
2021/07/20 05:24:32;;;;;;;8.63;4.73;;;;;;;;;;6187919;28;20047;-65
2021/07/20 05:27:36;;;;;;;9.60;5.68;;;;;;;;;;6171742;28;20047;-65
2021/07/20 05:30:40;;;;;;;9.60;4.90;;;;;;;;;;6165409;28;20065;-68
2021/07/20 05:33:42;;;;;;;12.27;4.72;;;;;;;;;;6172927;28;20733;-65
2021/07/20 05:36:44;;;;;;;9.48;4.60;;;;;;;;;;6153396;28;20042;-67
2021/07/20 05:39:47;;;;;;;6.47;4.60;;;;;;;;;;6167948;28;20532;-66
2021/07/20 05:42:49;;;;;;;11.70;4.57;;;;;;;;;;6161422;28;20055;-65
2021/07/20 05:45:53;;;;;;;10.35;4.80;;;;;;;;;;6157739;28;21068;-64
2021/07/20 05:48:55;;;;;;;8.38;4.80;;;;;;;;;;6161546;28;20743;-65
2021/07/20 05:51:57;;;;;;;10.77;4.77;;;;;;;;;;6159497;28;20499;-68
2021/07/20 05:54:59;;;;;;;9.98;5.13;;;;;;;;;;6182019;28;20505;-65
2021/07/20 05:58:02;;;;;;;8.93;5.17;;;;;;;;;;6163155;28;20126;-67
2021/07/20 06:01:05;;;;;;;12.60;5.30;;;;;;;;;;6157945;28;20512;-64
2021/07/20 06:04:07;;;;;;;9.98;5.15;;;;;;;;;;6164508;28;20066;-64
2021/07/20 06:07:10;;;;;;;11.05;5.22;;;;;;;;;;6157649;28;20086;-65
2021/07/20 06:10:15;;;;;;;10.05;4.85;;;;;;;;;;6163425;28;20051;-65
2021/07/20 06:13:18;;;;;;;10.57;4.80;;;;;;;;;;6174900;28;20099;-65
2021/07/20 06:16:24;;;;;;;9.63;5.75;;;;;;;;;;6178005;28;20054;-64
2021/07/20 06:19:26;;;;;;;9.70;5.10;;;;;;;;;;6187676;28;20046;-65
2021/07/20 06:22:30;;;;;;;11.85;4.63;;;;;;;;;;6162417;28;20071;-64
2021/07/20 06:25:36;;;;;;;10.77;5.22;;;;;;;;;;6156278;28;20050;-68
2021/07/20 06:28:39;;;;;;;10.93;4.57;;;;;;;;;;6172615;28;20043;-65
2021/07/20 06:31:44;;;;;;;10.43;4.38;;;;;;;;;;6169007;28;20129;-64
2021/07/20 06:34:46;;;;;;;7.38;4.50;;;;;;;;;;6161292;28;20191;-65
2021/07/20 06:37:49;;;;;;;11.85;4.18;;;;;;;;;;6133813;29;20054;-64
2021/07/20 06:40:52;;;;;;;8.98;4.68;;;;;;;;;;6139934;28;20121;-64
2021/07/20 06:43:55;;;;;;;9.40;4.47;;;;;;;;;;6143448;28;20414;-64
2021/07/20 06:47:00;;;;;;;9.73;4.90;;;;;;;;;;6126819;28;20276;-64
2021/07/20 06:50:04;;;;;;;10.95;4.35;;;;;;;;;;6138235;28;20102;-64
2021/07/20 06:53:06;;;;;;;11.27;4.50;;;;;;;;;;6157907;28;20553;-64
2021/07/20 06:56:11;;;;;;;8.45;4.45;;;;;;;;;;6159762;28;20439;-64
2021/07/20 06:59:14;;;;;;;13.20;4.82;;;;;;;;;;6162467;28;20439;-65
2021/07/20 07:02:20;;;;;;;11.40;5.22;;;;;;;;;;6136281;28;20051;-69
2021/07/20 07:05:24;;;;;;;14.90;5.95;;;;;;;;;;6154774;28;20288;-66
2021/07/20 07:08:27;;;;;;;12.40;6.93;;;;;;;;;;6157403;28;20055;-65
2021/07/20 07:11:29;;;;;;;11.18;6.05;;;;;;;;;;6133241;28;20051;-65
2021/07/20 07:14:32;;;;;;;12.52;6.13;;;;;;;;;;6124565;28;20039;-66
2021/07/20 07:17:35;;;;;;;14.43;5.33;;;;;;;;;;6129580;28;20044;-63
2021/07/20 07:20:39;;;;;;;11.55;5.68;;;;;;;;;;6128015;28;20066;-64
2021/07/20 07:23:42;;;;;;;13.00;5.50;;;;;;;;;;6154551;28;20109;-63
2021/07/20 07:26:45;;;;;;;13.07;5.97;;;;;;;;;;6140146;28;20142;-63
2021/07/20 07:29:52;;;;;;;12.73;5.65;;;;;;;;;;6148291;28;20072;-62
2021/07/20 07:33:04;;;;;;;11.55;5.75;;;;;;;;;;6133276;28;20066;-62
2021/07/20 07:36:11;;;;;;;9.65;5.75;;;;;;;;;;6152698;28;20058;-64
2021/07/20 07:39:16;;;;;;;10.40;5.95;;;;;;;;;;6168958;28;20078;-61
2021/07/20 07:42:19;;;;;;;16.95;6.55;;;;;;;;;;6162423;28;20084;-63
2021/07/20 07:45:21;;;;;;;9.57;5.60;;;;;;;;;;6163751;28;20086;-65
2021/07/20 07:48:36;;;;;;;;;;;;;;;;;;;;;
2021/07/20 07:51:40;;;;;;;11.98;6.05;;;;;;;;;;6102500;28;20226;-64
2021/07/20 07:54:43;;;;;;;10.25;5.38;;;;;;;;;;6163552;28;20047;-63
2021/07/20 07:57:45;;;;;;;11.95;5.95;;;;;;;;;;6160300;28;20067;-63
2021/07/20 08:00:47;;;;;;;11.40;5.97;;;;;;;;;;6130105;28;20049;-72
2021/07/20 08:03:50;;;;;;;17.33;6.30;;;;;;;;;;6178883;28;20058;-65
2021/07/20 08:06:54;;;;;;;10.52;5.90;;;;;;;;;;6154513;28;20058;-68
2021/07/20 08:09:57;;;;;;;15.30;6.47;;;;;;;;;;6164871;28;20137;-67
2021/07/20 08:13:00;;;;;;;13.15;6.80;;;;;;;;;;6156282;28;20043;-66
2021/07/20 08:16:03;;;;;;;13.65;7.07;;;;;;;;;;6155096;28;20062;-66
2021/07/20 08:19:06;;;;;;;12.23;6.25;;;;;;;;;;6161502;28;20057;-67
2021/07/20 08:22:17;;;;;;;20.00;6.20;;;;;;;;;;6155592;28;20417;-65
2021/07/20 08:25:27;;;;;;;13.45;6.05;;;;;;;;;;6159220;28;20066;-67
2021/07/20 08:28:32;;;;;;;12.35;6.43;;;;;;;;;;6158161;28;20046;-65
2021/07/20 08:31:38;;;;;;;10.95;6.40;;;;;;;;;;6166076;28;20046;-68
2021/07/20 08:34:44;;;;;;;14.63;5.75;;;;;;;;;;6160079;28;20051;-65
2021/07/20 08:37:48;;;;;;;10.02;5.95;;;;;;;;;;6154312;28;20495;-65
2021/07/20 08:41:30;;;;;;;11.10;5.55;;;;;;;;;;6159622;28;20038;-64
2021/07/20 08:44:50;;;;;;;10.07;6.10;;;;;;;;;;6165710;28;20046;-64
2021/07/20 08:48:16;;;;;;;15.32;6.43;;;;;;;;;;6149733;28;20043;-64
2021/07/20 08:51:49;;;;;;;12.93;6.72;;;;;;;;;;6157906;28;20137;-67
2021/07/20 08:54:54;;;;;;;14.13;7.13;;;;;;;;;;6188245;28;20046;-68
2021/07/20 08:57:57;;;;;;;11.30;6.20;;;;;;;;;;6170479;28;20058;-65
2021/07/20 09:01:04;;;;;;;10.52;5.85;;;;;;;;;;6156370;28;20082;-66
2021/07/20 09:04:08;;;;;;;14.00;5.60;;;;;;;;;;6178472;28;20153;-66
2021/07/20 09:07:22;;;;;;;12.90;6.18;;;;;;;;;;6166990;28;20042;-67
2021/07/20 09:10:26;;;;;;;11.00;5.70;;;;;;;;;;6160041;28;20414;-68
2021/07/20 09:13:33;;;;;;;10.65;6.25;;;;;;;;;;6175151;28;20038;-66
2021/07/20 09:16:38;;;;;;;9.18;5.15;;;;;;;;;;6160272;28;20050;-68
2021/07/20 09:19:50;;;;;;;13.15;5.65;;;;;;;;;;6177177;28;20050;-65
2021/07/20 09:22:57;;;;;;;9.60;5.20;;;;;;;;;;6180014;28;20214;-65
2021/07/20 09:26:04;;;;;;;12.55;6.20;;;;;;;;;;6185464;28;20061;-67
2021/07/20 09:29:12;;;;;;;10.75;5.70;;;;;;;;;;6190452;28;20057;-67
2021/07/20 09:32:31;;;;;;;12.90;6.30;;;;;;;;;;6173403;28;20062;-67
2021/07/20 09:35:37;;;;;;;10.18;5.95;;;;;;;;;;6171925;28;20621;-68
2021/07/20 09:38:59;;;;;;;9.73;5.20;;;;;;;;;;6166841;28;20142;-65
2021/07/20 09:42:08;;;;;;;9.27;5.70;;;;;;;;;;6176439;28;20050;-69
2021/07/20 09:45:12;;;;;;;9.65;6.25;;;;;;;;;;6190898;28;20050;-70
2021/07/20 09:48:22;;;;;;;9.73;6.10;;;;;;;;;;6180545;28;20042;-68
2021/07/20 09:51:40;;;;;;;9.93;5.82;;;;;;;;;;6166374;28;20046;-65
2021/07/20 09:55:00;;;;;;;11.57;5.88;;;;;;;;;;6187517;28;20131;-67
2021/07/20 09:58:11;;;;;;;8.48;5.35;;;;;;;;;;6173717;28;20046;-66
2021/07/20 10:01:18;;;;;;;12.70;6.50;;;;;;;;;;6179482;28;20046;-66
2021/07/20 10:04:27;;;;;;;10.05;6.25;;;;;;;;;;6170314;28;20055;-67
2021/07/20 10:07:36;;;;;;;10.60;5.63;;;;;;;;;;6178544;28;20046;-66
2021/07/20 10:10:46;;;;;;;8.20;5.60;;;;;;;;;;6184249;28;20085;-65
2021/07/20 10:13:58;;;;;;;10.38;5.80;;;;;;;;;;6191491;28;20085;-67
2021/07/20 10:17:09;;;;;;;10.43;6.43;;;;;;;;;;6177010;28;20517;-66
2021/07/20 10:20:16;;;;;;;12.27;6.57;;;;;;;;;;6167966;28;20117;-69
2021/07/20 10:23:22;;;;;;;9.80;6.88;;;;;;;;;;6181828;28;20335;-66
2021/07/20 10:26:30;;;;;;;11.52;5.32;;;;;;;;;;6180197;28;20070;-66
2021/07/20 10:29:47;;;;;;;12.32;5.55;;;;;;;;;;6189294;28;20046;-67
2021/07/20 10:33:00;;;;;;;9.40;5.50;;;;;;;;;;6162796;28;20052;-66
2021/07/20 10:36:05;;;;;;;10.63;6.63;;;;;;;;;;6174341;28;20125;-65
2021/07/20 10:39:09;;;;;;;6.22;5.15;;;;;;;;;;6185300;28;20069;-69
2021/07/20 10:42:17;;;;;;;8.13;5.50;;;;;;;;;;6178861;28;20055;-69
2021/07/20 10:45:19;;;;;;;8.52;5.18;;;;;;;;;;6181609;28;20058;-68
2021/07/20 10:48:24;;;;;;;11.15;4.88;;;;;;;;;;6179648;28;20050;-69
2021/07/20 10:51:31;;;;;;;13.27;5.65;;;;;;;;;;6180283;28;20062;-67
2021/07/20 10:54:38;;;;;;;7.25;6.18;;;;;;;;;;6186558;28;20491;-69
2021/07/20 10:57:50;;;;;;;8.55;4.93;;;;;;;;;;6184015;28;20074;-66
2021/07/20 11:00:58;;;;;;;5.38;4.78;;;;;;;;;;6155205;28;20046;-66
2021/07/20 11:04:10;;;;;;;7.60;5.43;;;;;;;;;;6186140;28;20054;-66
2021/07/20 11:07:12;;;;;;;9.30;5.03;;;;;;;;;;6152324;28;20054;-69
2021/07/20 11:10:18;;;;;;;8.25;5.30;;;;;;;;;;6164388;28;20054;-73
2021/07/20 11:13:24;;;;;;;8.82;5.88;;;;;;;;;;6164627;28;20133;-68
2021/07/20 11:16:29;;;;;;;9.60;5.47;;;;;;;;;;6143328;28;20051;-70
2021/07/20 11:19:31;;;;;;;10.98;5.60;;;;;;;;;;6162408;28;20106;-69
2021/07/20 11:22:33;;;;;;;6.70;5.30;;;;;;;;;;6149276;28;20061;-68
2021/07/20 11:25:38;;;;;;;7.88;5.50;;;;;;;;;;6156982;28;20047;-68
2021/07/20 11:28:44;;;;;;;10.05;6.10;;;;;;;;;;6182043;28;20043;-68
2021/07/20 11:31:52;;;;;;;7.05;5.40;;;;;;;;;;6155504;28;20133;-68
2021/07/20 11:34:56;;;;;;;9.18;5.05;;;;;;;;;;6167683;28;20490;-68
2021/07/20 11:38:07;;;;;;;6.53;4.68;;;;;;;;;;6176033;28;20149;-71
2021/07/20 11:41:14;;;;;;;7.85;4.55;;;;;;;;;;6171594;28;20057;-68
2021/07/20 11:44:29;;;;;;;6.03;4.57;;;;;;;;;;6164820;28;20046;-68
2021/07/20 11:47:33;;;;;;;6.28;4.38;;;;;;;;;;6179529;28;20053;-67
2021/07/20 11:50:41;;;;;;;7.90;4.50;;;;;;;;;;6160133;28;20073;-68
2021/07/20 11:53:49;;;;;;;10.80;4.57;;;;;;;;;;6170804;28;20057;-68
2021/07/20 11:57:00;;;;;;;7.18;4.85;;;;;;;;;;6177765;28;20394;-71
2021/07/20 12:00:08;;;;;;;7.60;5.13;;;;;;;;;;6170023;28;20126;-68
2021/07/20 12:03:16;;;;;;;5.93;4.63;;;;;;;;;;6165057;28;20097;-68
2021/07/20 12:06:31;;;;;;;8.75;5.30;;;;;;;;;;6181872;28;20153;-66
2021/07/20 12:09:41;;;;;;;5.97;4.53;;;;;;;;;;6168591;28;20086;-69
2021/07/20 12:12:51;;;;;;;6.43;4.50;;;;;;;;;;6159102;28;20043;-70
2021/07/20 12:15:56;;;;;;;6.68;4.45;;;;;;;;;;6170684;28;20065;-67
2021/07/20 12:18:59;;;;;;;9.25;4.72;;;;;;;;;;6161433;28;20100;-71
2021/07/20 12:22:04;;;;;;;5.95;4.40;;;;;;;;;;6187230;28;20046;-67
2021/07/20 12:25:07;;;;;;;9.38;4.50;;;;;;;;;;6194403;28;20057;-73
2021/07/20 12:28:10;;;;;;;6.18;4.68;;;;;;;;;;6189896;28;20050;-68
2021/07/20 12:31:13;;;;;;;5.80;4.20;;;;;;;;;;6187164;28;20057;-67
2021/07/20 12:34:15;;;;;;;11.82;4.40;;;;;;;;;;6200822;28;20050;-67
2021/07/20 12:37:18;;;;;;;5.25;4.15;;;;;;;;;;6178570;28;20756;-68
2021/07/20 12:40:20;;;;;;;4.60;4.18;;;;;;;;;;6181771;28;20053;-74
2021/07/20 12:43:23;;;;;;;9.75;4.72;;;;;;;;;;6191074;28;20439;-71
2021/07/20 12:46:29;;;;;;;6.68;3.90;;;;;;;;;;6179407;28;20066;-68
2021/07/20 12:49:31;;;;;;;5.03;3.63;;;;;;;;;;6188124;28;20181;-70
2021/07/20 12:52:36;;;;;;;4.15;3.70;;;;;;;;;;6181162;28;20042;-69
2021/07/20 12:55:38;;;;;;;7.15;4.22;;;;;;;;;;6185870;28;20057;-67
2021/07/20 12:58:40;;;;;;;6.00;4.20;;;;;;;;;;6192215;28;20080;-67
2021/07/20 13:01:44;;;;;;;5.35;4.57;;;;;;;;;;6184030;28;20091;-67
2021/07/20 13:04:48;;;;;;;6.78;4.00;;;;;;;;;;6190258;28;20050;-69
2021/07/20 13:07:50;;;;;;;8.98;4.13;;;;;;;;;;6183140;28;20062;-67
2021/07/20 13:10:53;;;;;;;8.93;4.10;;;;;;;;;;6187736;28;20129;-68
2021/07/20 13:13:55;;;;;;;6.07;4.03;;;;;;;;;;6195739;28;20403;-67
2021/07/20 13:17:00;;;;;;;9.05;3.83;;;;;;;;;;6174993;28;20042;-67
2021/07/20 13:20:06;;;;;;;6.72;3.90;;;;;;;;;;6190696;28;20405;-67
2021/07/20 13:23:07;;;;;;;7.97;4.07;;;;;;;;;;6177533;28;20058;-70
2021/07/20 13:26:10;;;;;;;5.32;3.90;;;;;;;;;;6157757;28;20058;-66
2021/07/20 13:29:14;;;;;;;7.45;3.97;;;;;;;;;;6169734;28;20055;-67
2021/07/20 13:32:17;;;;;;;5.03;4.10;;;;;;;;;;6156569;28;20055;-71
2021/07/20 13:35:20;;;;;;;8.18;4.00;;;;;;;;;;6149573;28;20063;-72
2021/07/20 13:38:25;;;;;;;6.20;4.20;;;;;;;;;;6140743;28;20412;-67
2021/07/20 13:41:28;;;;;;;7.97;3.88;;;;;;;;;;6130315;28;20514;-66
2021/07/20 13:44:30;;;;;;;4.72;4.05;;;;;;;;;;6163910;28;20046;-67
2021/07/20 13:47:36;;;;;;;6.22;3.92;;;;;;;;;;6144119;28;20066;-67
2021/07/20 13:50:38;;;;;;;7.68;3.63;;;;;;;;;;6133682;28;20246;-70
2021/07/20 13:53:41;;;;;;;6.18;3.90;;;;;;;;;;6144959;28;20039;-67
2021/07/20 13:56:44;;;;;;;6.28;3.88;;;;;;;;;;6130382;28;20055;-67
2021/07/20 13:59:47;;;;;;;4.93;3.78;;;;;;;;;;6138904;28;20047;-67
2021/07/20 14:02:51;;;;;;;4.15;3.70;;;;;;;;;;6128771;28;20071;-67
2021/07/20 14:05:53;;;;;;;6.32;3.38;;;;;;;;;;6145970;28;20518;-68
2021/07/20 14:08:55;;;;;;;4.55;3.55;;;;;;;;;;6166588;28;20182;-67
2021/07/20 14:11:58;;;;;;;4.85;3.60;;;;;;;;;;6155407;28;20054;-67
2021/07/20 14:15:01;;;;;;;5.47;3.30;;;;;;;;;;6137860;28;20050;-67
2021/07/20 14:18:05;;;;;;;5.22;3.53;;;;;;;;;;6128773;28;20047;-67
2021/07/20 14:21:09;;;;;;;5.60;3.20;;;;;;;;;;6138588;28;20632;-67
2021/07/20 14:24:13;;;;;;;3.42;3.13;;;;;;;;;;6146901;28;20094;-71
2021/07/20 14:27:17;;;;;;;3.55;3.25;;;;;;;;;;6132908;28;20066;-67
2021/07/20 14:30:18;;;;;;;4.82;3.40;;;;;;;;;;6136196;28;20065;-72
2021/07/20 14:33:23;;;;;;;6.53;3.47;;;;;;;;;;6133153;28;20815;-70
2021/07/20 14:36:39;;;;;;;4.43;3.10;;;;;;;;;;6152241;28;20105;-66
2021/07/20 14:39:41;;;;;;;3.10;2.80;;;;;;;;;;6157295;28;21580;-70
2021/07/20 14:42:43;;;;;;;;;;;;;;;;;;6180409;28;20093;-70
2021/07/20 14:45:44;;;;;;;5.70;3.00;;;;;;;;;;6179658;28;19928;-70
2021/07/20 14:48:52;;;;;;;4.38;3.17;;;;;;;;;;6187890;28;20046;-68
2021/07/20 14:51:54;;;;;;;4.32;3.10;;;;;;;;;;6183494;28;20163;-69
2021/07/20 14:55:11;;;;;;;3.42;2.78;;;;;;;;;;6190476;28;20545;-67
2021/07/20 14:58:17;;;;;;;4.60;2.80;;;;;;;;;;6169816;28;20046;-67
2021/07/20 15:01:21;;;;;;;5.65;3.03;;;;;;;;;;6154068;28;20054;-67
2021/07/20 15:04:34;;;;;;;3.53;3.00;;;;;;;;;;6153139;28;20046;-67
2021/07/20 15:07:44;;;;;;;3.47;2.78;;;;;;;;;;6136645;28;20070;-67
2021/07/20 15:11:12;;;;;;;5.38;3.20;;;;;;;;;;6153100;28;20050;-66
2021/07/20 15:14:22;;;;;;;5.00;3.45;;;;;;;;;;6146490;28;20129;-66
2021/07/20 15:17:25;;;;;;;4.78;3.17;;;;;;;;;;6150133;28;20529;-68
2021/07/20 15:21:01;;;;;;;4.90;3.08;;;;;;;;;;6164578;28;20105;-70
2021/07/20 15:24:23;;;;;;;7.95;3.25;;;;;;;;;;6151974;28;20102;-67
2021/07/20 15:27:26;;;;;;;6.27;3.43;;;;;;;;;;6156674;28;20093;-66
2021/07/20 15:34:35;;;;;;;5.28;3.30;;;;;;;;;;6176143;28;20057;-69
2021/07/20 15:37:48;;;;;;;4.30;3.63;;;;;;;;;;6179491;28;20144;-67
2021/07/20 15:41:23;;;;;;;4.95;3.83;;;;;;;;;;6180757;28;20038;-66
2021/07/20 15:44:25;;;;;;;7.47;3.92;;;;;;;;;;6175473;28;20405;-67
2021/07/20 15:47:33;;;;;;;6.50;3.72;;;;;;;;;;6174546;28;20140;-66
2021/07/20 15:50:48;;;;;;;5.28;4.18;;;;;;;;;;6178956;28;20046;-67
2021/07/20 15:53:52;;;;;;;4.65;3.75;;;;;;;;;;6178331;28;20587;-66
2021/07/20 15:56:55;;;;;;;7.82;3.65;;;;;;;;;;6186203;28;20050;-66
2021/07/20 15:59:58;;;;;;;5.25;3.60;;;;;;;;;;6203544;28;20058;-66
2021/07/20 16:03:00;;;;;;;5.70;3.67;;;;;;;;;;6186398;28;20061;-67
2021/07/20 16:06:04;;;;;;;6.53;3.70;;;;;;;;;;6192973;28;20042;-67
2021/07/20 16:09:13;;;;;;;4.60;3.25;;;;;;;;;;6181352;28;20126;-66
2021/07/20 16:12:16;;;;;;;6.43;4.00;;;;;;;;;;6177344;28;20047;-67
2021/07/20 16:15:19;;;;;;;5.25;3.85;;;;;;;;;;6189792;28;20058;-70
2021/07/20 16:21:43;;;;;;;6.88;3.75;;;;;;;;;;6161025;28;20047;-67
2021/07/20 16:25:00;;;;;;;;;;;;;;;;;;6169711;28;20039;-66
2021/07/20 16:28:02;;;;;;;5.18;3.70;;;;;;;;;;6162027;28;19922;-67
2021/07/20 16:31:06;;;;;;;;;;;;;;;;;;6160956;28;20047;-70
2021/07/20 16:34:08;;;;;;;6.35;3.85;;;;;;;;;;6164720;28;19969;-70
2021/07/20 16:37:10;;;;;;;5.32;3.88;;;;;;;;;;6158717;28;20126;-67
2021/07/20 16:40:15;;;;;;;5.55;3.40;;;;;;;;;;6149383;28;20051;-72
2021/07/20 16:43:19;;;;;;;4.93;3.95;;;;;;;;;;6165236;28;20179;-69
2021/07/20 16:46:23;;;;;;;8.10;3.92;;;;;;;;;;6153997;28;20051;-67
2021/07/20 16:49:25;;;;;;;4.18;3.78;;;;;;;;;;6166504;28;20414;-66
2021/07/20 16:52:27;;;;;;;6.40;3.85;;;;;;;;;;6143722;28;20095;-67
2021/07/20 16:55:33;;;;;;;6.20;3.60;;;;;;;;;;6163990;28;20047;-70
2021/07/20 16:58:40;;;;;;;5.22;4.10;;;;;;;;;;6169343;28;21607;-66
2021/07/20 17:01:44;;;;;;;8.93;4.22;;;;;;;;;;6154958;28;20054;-67
2021/07/20 17:04:46;;;;;;;6.90;4.10;;;;;;;;;;6166019;28;20069;-70
2021/07/20 17:07:49;;;;;;;6.78;4.18;;;;;;;;;;6160500;28;20039;-68
2021/07/20 17:10:55;;;;;;;6.40;4.15;;;;;;;;;;6158963;28;20053;-67
2021/07/20 17:14:03;;;;;;;9.18;4.05;;;;;;;;;;6169713;28;20058;-69
2021/07/20 17:20:36;;;;;;;6.07;4.40;;;;;;;;;;6153902;28;20067;-66
2021/07/20 17:23:39;;;;;;;6.43;4.28;;;;;;;;;;6166482;28;20062;-68
2021/07/20 17:26:43;;;;;;;5.47;3.60;;;;;;;;;;6157155;28;20058;-66
2021/07/20 17:29:45;;;;;;;10.15;4.55;;;;;;;;;;6166979;28;20054;-67
2021/07/20 17:32:48;;;;;;;5.68;3.85;;;;;;;;;;6154360;28;20078;-66
2021/07/20 17:35:50;;;;;;;5.70;3.85;;;;;;;;;;6157567;28;20070;-67
2021/07/20 17:38:53;;;;;;;6.28;3.40;;;;;;;;;;6181793;28;20051;-68
2021/07/20 17:42:12;;;;;;;4.70;3.70;;;;;;;;;;6160679;28;20047;-67
2021/07/20 17:45:16;;;;;;;5.63;3.75;;;;;;;;;;6155327;28;20055;-72
2021/07/20 17:48:22;;;;;;;6.20;3.45;;;;;;;;;;6166485;28;20054;-71
2021/07/20 17:51:34;;;;;;;4.00;2.95;;;;;;;;;;6154324;28;20053;-67
2021/07/20 17:54:38;;;;;;;6.93;3.33;;;;;;;;;;6163328;28;20129;-70
2021/07/20 17:57:42;;;;;;;4.20;3.15;;;;;;;;;;6156545;28;20046;-67
2021/07/20 18:00:44;;;;;;;3.22;2.65;;;;;;;;;;6156132;28;20137;-70
2021/07/20 18:03:45;;;;;;;2.78;2.42;;;;;;;;;;6163212;28;20138;-67
2021/07/20 18:10:09;;;;;;;3.50;2.88;;;;;;;;;;7107886;23;20051;-71
2021/07/20 18:16:19;;;;;;;4.55;2.90;;;;;;;;;;6164840;28;20046;-63
2021/07/20 18:19:20;;;;;;;4.03;3.08;;;;;;;;;;6179511;28;20050;-64
2021/07/20 18:22:22;;;;;;;4.50;3.03;;;;;;;;;;6173260;28;20078;-65
2021/07/20 18:25:25;;;;;;;5.22;2.80;;;;;;;;;;6185341;28;20081;-68
2021/07/20 18:28:27;;;;;;;5.75;3.00;;;;;;;;;;6192636;28;20621;-66
2021/07/20 18:31:30;;;;;;;4.35;3.03;;;;;;;;;;6185885;28;20089;-64
2021/07/20 18:34:32;;;;;;;5.03;3.10;;;;;;;;;;6200197;28;20208;-65
2021/07/20 18:37:33;;;;;;;3.63;2.90;;;;;;;;;;6184965;28;20058;-66
2021/07/20 18:40:35;;;;;;;8.85;3.33;;;;;;;;;;6185456;28;20054;-65
2021/07/20 18:43:37;;;;;;;4.65;2.60;;;;;;;;;;6189440;28;20057;-69
2021/07/20 18:46:40;;;;;;;8.00;2.72;;;;;;;;;;6175606;28;20073;-65
2021/07/20 18:49:42;;;;;;;5.55;3.40;;;;;;;;;;6195816;28;20129;-65